sensor_id;sensor_type;location;lat;lon;timestamp;pressure;altitude;pressure_sealevel;temperature;humidity
12785;BME280;6456;42.680;23.260;2022-12-07T00:02:03;94640.97;;;7.24;100.00
12785;BME280;6456;42.680;23.260;2022-12-07T00:04:30;94547.63;;;6.69;100.00
12785;BME280;6456;42.680;23.260;2022-12-07T00:06:57;94633.34;;;7.29;100.00
12785;BME280;6456;42.680;23.260;2022-12-07T00:09:24;94608.47;;;7.12;100.00
12785;BME280;6456;42.680;23.260;2022-12-07T00:11:53;94608.63;;;7.04;100.00
12785;BME280;6456;42.680;23.260;2022-12-07T00:14:20;94620.34;;;7.08;100.00
12785;BME280;6456;42.680;23.260;2022-12-07T00:16:49;94634.16;;;7.30;100.00
12785;BME280;6456;42.680;23.260;2022-12-07T00:19:17;94569.91;;;6.93;100.00
12785;BME280;6456;42.680;23.260;2022-12-07T00:21:48;94556.13;;;6.78;100.00
12785;BME280;6456;42.680;23.260;2022-12-07T00:24:15;94586.44;;;6.93;100.00
12785;BME280;6456;42.680;23.260;2022-12-07T00:26:42;94584.47;;;7.02;100.00
12785;BME280;6456;42.680;23.260;2022-12-07T00:29:15;94657.59;;;7.44;100.00
12785;BME280;6456;42.680;23.260;2022-12-07T00:31:42;94571.94;;;6.91;100.00
12785;BME280;6456;42.680;23.260;2022-12-07T00:34:12;94551.28;;;6.75;100.00
12785;BME280;6456;42.680;23.260;2022-12-07T00:36:40;94530.03;;;6.57;100.00
12785;BME280;6456;42.680;23.260;2022-12-07T00:39:08;94527.34;;;6.43;100.00
12785;BME280;6456;42.680;23.260;2022-12-07T00:41:36;94604.19;;;6.77;100.00
12785;BME280;6456;42.680;23.260;2022-12-07T00:44:03;94583.56;;;6.61;100.00
12785;BME280;6456;42.680;23.260;2022-12-07T00:46:38;94571.09;;;6.63;100.00
12785;BME280;6456;42.680;23.260;2022-12-07T00:49:07;94576.13;;;6.64;100.00
12785;BME280;6456;42.680;23.260;2022-12-07T00:51:47;94543.50;;;6.32;100.00
12785;BME280;6456;42.680;23.260;2022-12-07T00:54:15;94516.91;;;6.22;100.00
12785;BME280;6456;42.680;23.260;2022-12-07T00:56:42;94576.34;;;6.63;100.00
12785;BME280;6456;42.680;23.260;2022-12-07T00:59:13;94573.09;;;6.61;100.00
12785;BME280;6456;42.680;23.260;2022-12-07T01:01:42;94560.28;;;6.44;100.00
12785;BME280;6456;42.680;23.260;2022-12-07T01:04:09;94630.25;;;6.91;100.00
12785;BME280;6456;42.680;23.260;2022-12-07T01:06:36;94657.81;;;7.15;100.00
12785;BME280;6456;42.680;23.260;2022-12-07T01:09:03;94528.44;;;6.34;100.00
12785;BME280;6456;42.680;23.260;2022-12-07T01:11:31;94593.97;;;6.82;100.00
12785;BME280;6456;42.680;23.260;2022-12-07T01:14:00;94572.34;;;6.67;100.00
12785;BME280;6456;42.680;23.260;2022-12-07T01:16:29;94566.13;;;6.68;100.00
12785;BME280;6456;42.680;23.260;2022-12-07T01:18:58;94572.81;;;6.77;100.00
12785;BME280;6456;42.680;23.260;2022-12-07T01:21:28;94573.25;;;6.80;100.00
12785;BME280;6456;42.680;23.260;2022-12-07T01:23:57;94622.72;;;7.03;100.00
12785;BME280;6456;42.680;23.260;2022-12-07T01:26:24;94593.63;;;6.91;100.00
12785;BME280;6456;42.680;23.260;2022-12-07T01:28:53;94544.38;;;6.67;100.00
12785;BME280;6456;42.680;23.260;2022-12-07T01:31:22;94616.94;;;7.14;100.00
12785;BME280;6456;42.680;23.260;2022-12-07T01:33:52;94617.97;;;7.13;100.00
12785;BME280;6456;42.680;23.260;2022-12-07T01:36:22;94576.06;;;6.79;100.00
12785;BME280;6456;42.680;23.260;2022-12-07T01:38:55;94573.06;;;6.82;100.00
12785;BME280;6456;42.680;23.260;2022-12-07T01:41:23;94633.28;;;7.16;100.00
12785;BME280;6456;42.680;23.260;2022-12-07T01:44:10;94630.47;;;7.18;100.00
12785;BME280;6456;42.680;23.260;2022-12-07T01:46:38;94562.56;;;6.75;100.00
12785;BME280;6456;42.680;23.260;2022-12-07T01:49:06;94543.97;;;6.64;100.00
12785;BME280;6456;42.680;23.260;2022-12-07T01:51:37;94560.19;;;6.80;100.00
12785;BME280;6456;42.680;23.260;2022-12-07T01:54:06;94574.34;;;6.92;100.00
12785;BME280;6456;42.680;23.260;2022-12-07T01:56:33;94498.38;;;6.45;100.00
12785;BME280;6456;42.680;23.260;2022-12-07T01:59:01;94539.59;;;6.71;100.00
12785;BME280;6456;42.680;23.260;2022-12-07T02:01:28;94495.63;;;6.53;100.00
12785;BME280;6456;42.680;23.260;2022-12-07T02:03:55;94507.31;;;6.57;100.00
12785;BME280;6456;42.680;23.260;2022-12-07T02:06:24;94564.69;;;6.93;100.00
12785;BME280;6456;42.680;23.260;2022-12-07T02:08:53;94541.03;;;6.73;100.00
12785;BME280;6456;42.680;23.260;2022-12-07T02:11:21;94499.22;;;6.52;100.00
12785;BME280;6456;42.680;23.260;2022-12-07T02:13:48;94619.41;;;7.22;100.00
12785;BME280;6456;42.680;23.260;2022-12-07T02:16:25;94521.06;;;6.66;100.00
12785;BME280;6456;42.680;23.260;2022-12-07T02:19:03;94534.75;;;6.68;100.00
12785;BME280;6456;42.680;23.260;2022-12-07T02:21:44;94494.34;;;6.42;100.00
12785;BME280;6456;42.680;23.260;2022-12-07T02:24:25;94533.34;;;6.72;100.00
12785;BME280;6456;42.680;23.260;2022-12-07T02:27:33;94605.50;;;7.22;100.00
12785;BME280;6456;42.680;23.260;2022-12-07T02:30:07;94472.16;;;6.32;100.00
12785;BME280;6456;42.680;23.260;2022-12-07T02:32:43;94541.25;;;6.78;100.00
12785;BME280;6456;42.680;23.260;2022-12-07T02:35:19;94591.94;;;7.05;100.00
12785;BME280;6456;42.680;23.260;2022-12-07T02:37:57;94534.94;;;6.66;100.00
12785;BME280;6456;42.680;23.260;2022-12-07T02:40:31;94528.91;;;6.66;100.00
12785;BME280;6456;42.680;23.260;2022-12-07T02:43:04;94576.94;;;6.92;100.00
12785;BME280;6456;42.680;23.260;2022-12-07T02:45:36;94512.38;;;6.59;100.00
12785;BME280;6456;42.680;23.260;2022-12-07T02:48:07;94552.94;;;6.82;100.00
12785;BME280;6456;42.680;23.260;2022-12-07T02:50:35;94606.22;;;7.09;100.00
12785;BME280;6456;42.680;23.260;2022-12-07T02:53:03;94481.03;;;6.37;100.00
12785;BME280;6456;42.680;23.260;2022-12-07T02:55:36;94515.06;;;6.44;100.00
12785;BME280;6456;42.680;23.260;2022-12-07T02:58:18;94526.22;;;6.59;100.00
12785;BME280;6456;42.680;23.260;2022-12-07T03:00:56;94521.22;;;6.64;100.00
12785;BME280;6456;42.680;23.260;2022-12-07T03:03:27;94482.97;;;6.29;100.00
12785;BME280;6456;42.680;23.260;2022-12-07T03:06:12;94485.59;;;6.29;100.00
12785;BME280;6456;42.680;23.260;2022-12-07T03:08:52;94472.72;;;6.27;100.00
12785;BME280;6456;42.680;23.260;2022-12-07T03:11:27;94450.53;;;6.17;100.00
12785;BME280;6456;42.680;23.260;2022-12-07T03:14:00;94527.47;;;6.63;100.00
12785;BME280;6456;42.680;23.260;2022-12-07T03:16:33;94443.63;;;6.09;100.00
12785;BME280;6456;42.680;23.260;2022-12-07T03:19:05;94485.66;;;6.35;100.00
12785;BME280;6456;42.680;23.260;2022-12-07T03:21:38;94531.44;;;6.59;100.00
12785;BME280;6456;42.680;23.260;2022-12-07T03:24:09;94447.38;;;6.00;100.00
12785;BME280;6456;42.680;23.260;2022-12-07T03:26:41;94467.38;;;6.14;100.00
12785;BME280;6456;42.680;23.260;2022-12-07T03:29:13;94577.53;;;6.88;100.00
12785;BME280;6456;42.680;23.260;2022-12-07T03:31:47;94528.75;;;6.46;100.00
12785;BME280;6456;42.680;23.260;2022-12-07T03:34:19;94490.97;;;6.21;100.00
12785;BME280;6456;42.680;23.260;2022-12-07T03:36:54;94493.88;;;6.32;100.00
12785;BME280;6456;42.680;23.260;2022-12-07T03:39:28;94565.75;;;6.71;100.00
12785;BME280;6456;42.680;23.260;2022-12-07T03:41:58;94523.94;;;6.50;100.00
12785;BME280;6456;42.680;23.260;2022-12-07T03:44:27;94517.72;;;6.51;100.00
12785;BME280;6456;42.680;23.260;2022-12-07T03:47:01;94579.53;;;6.86;100.00
12785;BME280;6456;42.680;23.260;2022-12-07T03:49:39;94475.91;;;6.23;100.00
12785;BME280;6456;42.680;23.260;2022-12-07T03:52:13;94472.84;;;6.19;100.00
12785;BME280;6456;42.680;23.260;2022-12-07T03:54:48;94485.31;;;6.17;100.00
12785;BME280;6456;42.680;23.260;2022-12-07T03:57:21;94537.31;;;6.61;100.00
12785;BME280;6456;42.680;23.260;2022-12-07T03:59:49;94443.94;;;5.93;100.00
12785;BME280;6456;42.680;23.260;2022-12-07T04:02:19;94522.97;;;6.51;100.00
12785;BME280;6456;42.680;23.260;2022-12-07T04:04:47;94541.16;;;6.65;100.00
12785;BME280;6456;42.680;23.260;2022-12-07T04:07:17;94554.91;;;6.74;100.00
12785;BME280;6456;42.680;23.260;2022-12-07T04:09:44;94494.31;;;6.36;100.00
12785;BME280;6456;42.680;23.260;2022-12-07T04:12:11;94482.81;;;6.30;100.00
12785;BME280;6456;42.680;23.260;2022-12-07T04:14:38;94571.50;;;6.87;100.00
12785;BME280;6456;42.680;23.260;2022-12-07T04:17:05;94518.00;;;6.62;100.00
12785;BME280;6456;42.680;23.260;2022-12-07T04:19:34;94470.72;;;6.29;100.00
12785;BME280;6456;42.680;23.260;2022-12-07T04:22:04;94513.16;;;6.59;100.00
12785;BME280;6456;42.680;23.260;2022-12-07T04:24:34;94490.63;;;6.30;100.00
12785;BME280;6456;42.680;23.260;2022-12-07T04:27:02;94465.25;;;6.24;100.00
12785;BME280;6456;42.680;23.260;2022-12-07T04:29:29;94426.50;;;6.00;100.00
12785;BME280;6456;42.680;23.260;2022-12-07T04:31:56;94561.00;;;6.81;100.00
12785;BME280;6456;42.680;23.260;2022-12-07T04:34:23;94498.97;;;6.40;100.00
12785;BME280;6456;42.680;23.260;2022-12-07T04:36:51;94507.13;;;6.31;100.00
12785;BME280;6456;42.680;23.260;2022-12-07T04:39:21;94544.72;;;6.58;100.00
12785;BME280;6456;42.680;23.260;2022-12-07T04:41:48;94541.84;;;6.46;100.00
12785;BME280;6456;42.680;23.260;2022-12-07T04:44:16;94452.94;;;5.91;100.00
12785;BME280;6456;42.680;23.260;2022-12-07T04:46:43;94523.84;;;6.36;100.00
12785;BME280;6456;42.680;23.260;2022-12-07T04:49:11;94507.88;;;6.25;100.00
12785;BME280;6456;42.680;23.260;2022-12-07T04:51:38;94509.06;;;6.22;100.00
12785;BME280;6456;42.680;23.260;2022-12-07T04:54:06;94588.22;;;6.65;100.00
12785;BME280;6456;42.680;23.260;2022-12-07T04:56:34;94524.78;;;6.29;100.00
12785;BME280;6456;42.680;23.260;2022-12-07T04:59:03;94532.81;;;6.27;100.00
12785;BME280;6456;42.680;23.260;2022-12-07T05:01:31;94580.03;;;6.47;100.00
12785;BME280;6456;42.680;23.260;2022-12-07T05:03:58;94550.91;;;6.29;100.00
12785;BME280;6456;42.680;23.260;2022-12-07T05:06:26;94574.06;;;6.32;100.00
12785;BME280;6456;42.680;23.260;2022-12-07T05:08:53;94544.03;;;6.00;100.00
12785;BME280;6456;42.680;23.260;2022-12-07T05:11:21;94561.50;;;6.21;100.00
12785;BME280;6456;42.680;23.260;2022-12-07T05:14:10;94577.78;;;6.44;100.00
12785;BME280;6456;42.680;23.260;2022-12-07T05:16:38;94558.81;;;6.35;100.00
12785;BME280;6456;42.680;23.260;2022-12-07T05:19:05;94534.81;;;6.25;100.00
12785;BME280;6456;42.680;23.260;2022-12-07T05:21:32;94603.66;;;6.60;100.00
12785;BME280;6456;42.680;23.260;2022-12-07T05:24:00;94530.81;;;6.29;100.00
12785;BME280;6456;42.680;23.260;2022-12-07T05:26:31;94503.78;;;6.16;100.00
12785;BME280;6456;42.680;23.260;2022-12-07T05:28:58;94444.75;;;5.79;100.00
12785;BME280;6456;42.680;23.260;2022-12-07T05:31:27;94476.72;;;6.02;100.00
12785;BME280;6456;42.680;23.260;2022-12-07T05:33:54;94471.16;;;6.05;100.00
12785;BME280;6456;42.680;23.260;2022-12-07T05:36:21;94446.75;;;5.77;100.00
12785;BME280;6456;42.680;23.260;2022-12-07T05:38:48;94492.44;;;6.09;100.00
12785;BME280;6456;42.680;23.260;2022-12-07T05:41:17;94436.25;;;5.70;100.00
12785;BME280;6456;42.680;23.260;2022-12-07T05:44:03;94494.03;;;6.03;100.00
12785;BME280;6456;42.680;23.260;2022-12-07T05:46:30;94513.47;;;6.22;100.00
12785;BME280;6456;42.680;23.260;2022-12-07T05:48:57;94502.72;;;6.10;100.00
12785;BME280;6456;42.680;23.260;2022-12-07T05:51:24;94413.22;;;5.53;100.00
12785;BME280;6456;42.680;23.260;2022-12-07T05:53:51;94430.47;;;5.54;100.00
12785;BME280;6456;42.680;23.260;2022-12-07T05:56:18;94575.72;;;6.39;100.00
12785;BME280;6456;42.680;23.260;2022-12-07T05:58:45;94498.22;;;5.83;100.00
12785;BME280;6456;42.680;23.260;2022-12-07T06:01:31;94480.59;;;5.85;100.00
12785;BME280;6456;42.680;23.260;2022-12-07T06:03:58;94458.28;;;5.47;100.00
12785;BME280;6456;42.680;23.260;2022-12-07T06:06:25;94573.81;;;6.27;100.00
12785;BME280;6456;42.680;23.260;2022-12-07T06:08:52;94475.84;;;5.74;100.00
12785;BME280;6456;42.680;23.260;2022-12-07T06:11:19;94516.19;;;5.86;100.00
12785;BME280;6456;42.680;23.260;2022-12-07T06:14:03;94487.97;;;5.81;100.00
12785;BME280;6456;42.680;23.260;2022-12-07T06:16:32;94576.09;;;6.36;100.00
12785;BME280;6456;42.680;23.260;2022-12-07T06:18:59;94535.38;;;6.00;100.00
12785;BME280;6456;42.680;23.260;2022-12-07T06:21:25;94508.22;;;5.79;100.00
12785;BME280;6456;42.680;23.260;2022-12-07T06:23:52;94560.44;;;6.15;100.00
12785;BME280;6456;42.680;23.260;2022-12-07T06:26:19;94571.31;;;6.19;100.00
12785;BME280;6456;42.680;23.260;2022-12-07T06:28:46;94582.09;;;6.30;100.00
12785;BME280;6456;42.680;23.260;2022-12-07T06:31:13;94542.72;;;6.11;100.00
12785;BME280;6456;42.680;23.260;2022-12-07T06:33:42;94593.72;;;6.49;100.00
12785;BME280;6456;42.680;23.260;2022-12-07T06:36:09;94542.91;;;6.30;100.00
12785;BME280;6456;42.680;23.260;2022-12-07T06:38:37;94585.81;;;6.64;100.00
12785;BME280;6456;42.680;23.260;2022-12-07T06:41:04;94570.81;;;6.51;100.00
12785;BME280;6456;42.680;23.260;2022-12-07T06:43:32;94609.59;;;6.69;100.00
12785;BME280;6456;42.680;23.260;2022-12-07T06:45:59;94568.00;;;6.53;100.00
12785;BME280;6456;42.680;23.260;2022-12-07T06:48:26;94591.13;;;6.77;100.00
12785;BME280;6456;42.680;23.260;2022-12-07T06:50:54;94572.53;;;6.65;100.00
12785;BME280;6456;42.680;23.260;2022-12-07T06:53:21;94592.44;;;6.94;100.00
12785;BME280;6456;42.680;23.260;2022-12-07T06:55:48;94542.59;;;6.68;100.00
12785;BME280;6456;42.680;23.260;2022-12-07T06:58:15;94576.91;;;6.86;100.00
12785;BME280;6456;42.680;23.260;2022-12-07T07:00:44;94586.47;;;7.00;100.00
12785;BME280;6456;42.680;23.260;2022-12-07T07:03:11;94520.97;;;6.53;100.00
12785;BME280;6456;42.680;23.260;2022-12-07T07:05:39;94580.28;;;6.80;100.00
12785;BME280;6456;42.680;23.260;2022-12-07T07:08:07;94591.47;;;6.95;100.00
12785;BME280;6456;42.680;23.260;2022-12-07T07:10:34;94571.50;;;6.87;100.00
12785;BME280;6456;42.680;23.260;2022-12-07T07:13:02;94506.50;;;6.57;100.00
12785;BME280;6456;42.680;23.260;2022-12-07T07:15:29;94591.69;;;7.00;100.00
12785;BME280;6456;42.680;23.260;2022-12-07T07:17:56;94535.66;;;6.54;100.00
12785;BME280;6456;42.680;23.260;2022-12-07T07:20:23;94527.34;;;6.43;100.00
12785;BME280;6456;42.680;23.260;2022-12-07T07:22:50;94556.69;;;6.45;100.00
12785;BME280;6456;42.680;23.260;2022-12-07T07:25:18;94508.19;;;6.15;100.00
12785;BME280;6456;42.680;23.260;2022-12-07T07:27:45;94559.94;;;6.47;100.00
12785;BME280;6456;42.680;23.260;2022-12-07T07:30:13;94591.94;;;6.77;100.00
12785;BME280;6456;42.680;23.260;2022-12-07T07:32:40;94598.22;;;6.83;100.00
12785;BME280;6456;42.680;23.260;2022-12-07T07:35:07;94582.56;;;6.89;100.00
12785;BME280;6456;42.680;23.260;2022-12-07T07:37:34;94535.50;;;6.62;100.00
12785;BME280;6456;42.680;23.260;2022-12-07T07:40:01;94563.44;;;6.89;100.00
12785;BME280;6456;42.680;23.260;2022-12-07T07:42:30;94593.00;;;7.17;100.00
12785;BME280;6456;42.680;23.260;2022-12-07T07:44:57;94573.81;;;7.03;100.00
12785;BME280;6456;42.680;23.260;2022-12-07T07:47:23;94604.97;;;7.26;100.00
12785;BME280;6456;42.680;23.260;2022-12-07T07:49:50;94601.56;;;7.32;100.00
12785;BME280;6456;42.680;23.260;2022-12-07T07:52:17;94598.72;;;7.27;100.00
12785;BME280;6456;42.680;23.260;2022-12-07T07:54:44;94585.84;;;7.32;100.00
12785;BME280;6456;42.680;23.260;2022-12-07T07:57:11;94582.25;;;7.33;100.00
12785;BME280;6456;42.680;23.260;2022-12-07T07:59:39;94599.81;;;7.46;100.00
12785;BME280;6456;42.680;23.260;2022-12-07T08:02:07;94542.69;;;7.15;100.00
12785;BME280;6456;42.680;23.260;2022-12-07T08:04:36;94512.16;;;6.94;100.00
12785;BME280;6456;42.680;23.260;2022-12-07T08:07:02;94542.69;;;7.15;100.00
12785;BME280;6456;42.680;23.260;2022-12-07T08:09:29;94548.75;;;7.22;100.00
12785;BME280;6456;42.680;23.260;2022-12-07T08:11:59;94514.03;;;7.00;100.00
12785;BME280;6456;42.680;23.260;2022-12-07T08:14:27;94546.75;;;7.24;100.00
12785;BME280;6456;42.680;23.260;2022-12-07T08:16:55;94524.75;;;7.12;100.00
12785;BME280;6456;42.680;23.260;2022-12-07T08:19:22;94570.38;;;7.37;100.00
12785;BME280;6456;42.680;23.260;2022-12-07T08:21:49;94598.69;;;7.61;100.00
12785;BME280;6456;42.680;23.260;2022-12-07T08:24:16;94560.13;;;7.42;100.00
12785;BME280;6456;42.680;23.260;2022-12-07T08:26:43;94518.88;;;7.03;100.00
12785;BME280;6456;42.680;23.260;2022-12-07T08:29:10;94466.47;;;6.84;100.00
12785;BME280;6456;42.680;23.260;2022-12-07T08:31:39;94616.63;;;7.64;100.00
12785;BME280;6456;42.680;23.260;2022-12-07T08:34:09;94527.38;;;7.12;100.00
12785;BME280;6456;42.680;23.260;2022-12-07T08:36:37;94546.97;;;7.29;100.00
12785;BME280;6456;42.680;23.260;2022-12-07T08:39:04;94539.69;;;7.18;100.00
12785;BME280;6456;42.680;23.260;2022-12-07T08:41:31;94593.69;;;7.66;100.00
12785;BME280;6456;42.680;23.260;2022-12-07T08:43:58;94563.34;;;7.44;100.00
12785;BME280;6456;42.680;23.260;2022-12-07T08:46:28;94541.81;;;7.42;100.00
12785;BME280;6456;42.680;23.260;2022-12-07T08:49:02;94564.66;;;7.61;100.00
12785;BME280;6456;42.680;23.260;2022-12-07T08:51:31;94497.81;;;7.18;100.00
12785;BME280;6456;42.680;23.260;2022-12-07T08:54:00;94556.97;;;7.60;100.00
12785;BME280;6456;42.680;23.260;2022-12-07T08:56:29;94545.88;;;7.51;100.00
12785;BME280;6456;42.680;23.260;2022-12-07T08:58:57;94559.44;;;7.68;100.00
12785;BME280;6456;42.680;23.260;2022-12-07T09:01:24;94494.84;;;7.34;100.00
12785;BME280;6456;42.680;23.260;2022-12-07T09:03:52;94552.63;;;7.73;100.00
12785;BME280;6456;42.680;23.260;2022-12-07T09:06:19;94498.94;;;7.50;100.00
12785;BME280;6456;42.680;23.260;2022-12-07T09:08:50;94517.94;;;7.65;100.00
12785;BME280;6456;42.680;23.260;2022-12-07T09:11:17;94561.34;;;8.00;100.00
12785;BME280;6456;42.680;23.260;2022-12-07T09:13:44;94529.69;;;7.95;100.00
12785;BME280;6456;42.680;23.260;2022-12-07T09:16:12;94563.19;;;8.13;100.00
12785;BME280;6456;42.680;23.260;2022-12-07T09:18:39;94565.25;;;8.24;100.00
12785;BME280;6456;42.680;23.260;2022-12-07T09:21:07;94567.69;;;8.32;100.00
12785;BME280;6456;42.680;23.260;2022-12-07T09:23:34;94506.53;;;8.12;100.00
12785;BME280;6456;42.680;23.260;2022-12-07T09:26:03;94505.53;;;8.19;100.00
12785;BME280;6456;42.680;23.260;2022-12-07T09:28:31;94488.00;;;8.20;100.00
12785;BME280;6456;42.680;23.260;2022-12-07T09:30:58;94545.53;;;8.61;100.00
12785;BME280;6456;42.680;23.260;2022-12-07T09:33:25;94536.66;;;8.55;100.00
12785;BME280;6456;42.680;23.260;2022-12-07T09:35:52;94530.19;;;8.58;100.00
12785;BME280;6456;42.680;23.260;2022-12-07T09:38:19;94534.22;;;8.73;100.00
12785;BME280;6456;42.680;23.260;2022-12-07T09:40:47;94428.13;;;8.04;100.00
12785;BME280;6456;42.680;23.260;2022-12-07T09:43:19;94501.75;;;8.61;100.00
12785;BME280;6456;42.680;23.260;2022-12-07T09:45:48;94409.19;;;8.08;100.00
12785;BME280;6456;42.680;23.260;2022-12-07T09:48:18;94498.91;;;8.63;100.00
12785;BME280;6456;42.680;23.260;2022-12-07T09:50:47;94482.16;;;8.70;100.00
12785;BME280;6456;42.680;23.260;2022-12-07T09:53:20;94485.19;;;8.74;100.00
12785;BME280;6456;42.680;23.260;2022-12-07T09:55:47;94519.06;;;9.01;100.00
12785;BME280;6456;42.680;23.260;2022-12-07T09:58:20;94499.09;;;8.87;100.00
12785;BME280;6456;42.680;23.260;2022-12-07T10:00:50;94432.97;;;8.59;100.00
12785;BME280;6456;42.680;23.260;2022-12-07T10:03:20;94389.03;;;8.35;100.00
12785;BME280;6456;42.680;23.260;2022-12-07T10:05:49;94449.31;;;8.61;100.00
12785;BME280;6456;42.680;23.260;2022-12-07T10:08:17;94436.41;;;8.47;100.00
12785;BME280;6456;42.680;23.260;2022-12-07T10:10:46;94394.28;;;8.42;100.00
12785;BME280;6456;42.680;23.260;2022-12-07T10:13:21;94447.00;;;8.84;100.00
12785;BME280;6456;42.680;23.260;2022-12-07T10:15:52;94376.53;;;8.30;100.00
12785;BME280;6456;42.680;23.260;2022-12-07T10:18:29;94373.28;;;8.35;100.00
12785;BME280;6456;42.680;23.260;2022-12-07T10:24:00;94369.59;;;8.62;100.00
12785;BME280;6456;42.680;23.260;2022-12-07T10:26:30;94469.09;;;9.28;100.00
12785;BME280;6456;42.680;23.260;2022-12-07T10:29:18;94457.19;;;9.32;100.00
12785;BME280;6456;42.680;23.260;2022-12-07T10:31:53;94353.81;;;8.75;100.00
12785;BME280;6456;42.680;23.260;2022-12-07T10:34:24;94400.66;;;9.23;100.00
12785;BME280;6456;42.680;23.260;2022-12-07T10:36:53;94361.38;;;9.03;100.00
12785;BME280;6456;42.680;23.260;2022-12-07T10:39:21;94422.31;;;9.49;100.00
12785;BME280;6456;42.680;23.260;2022-12-07T10:41:56;94469.81;;;9.86;100.00
12785;BME280;6456;42.680;23.260;2022-12-07T10:44:27;94416.28;;;9.49;100.00
12785;BME280;6456;42.680;23.260;2022-12-07T10:47:01;94393.53;;;9.36;100.00
12785;BME280;6456;42.680;23.260;2022-12-07T10:52:37;94438.88;;;9.56;100.00
12785;BME280;6456;42.680;23.260;2022-12-07T10:55:15;94435.78;;;9.66;100.00
12785;BME280;6456;42.680;23.260;2022-12-07T10:57:59;94327.47;;;9.01;100.00
12785;BME280;6456;42.680;23.260;2022-12-07T11:00:39;94416.00;;;9.57;100.00
12785;BME280;6456;42.680;23.260;2022-12-07T11:03:26;94332.06;;;9.13;100.00
12785;BME280;6456;42.680;23.260;2022-12-07T11:06:04;94364.50;;;9.25;100.00
12785;BME280;6456;42.680;23.260;2022-12-07T11:25:18;94347.38;;;9.47;100.00
12785;BME280;6456;42.680;23.260;2022-12-07T11:28:03;94338.84;;;9.58;100.00
12785;BME280;6456;42.680;23.260;2022-12-07T11:30:42;94407.13;;;10.20;100.00
12785;BME280;6456;42.680;23.260;2022-12-07T11:33:29;94374.81;;;10.13;100.00
12785;BME280;6456;42.680;23.260;2022-12-07T11:36:06;94274.81;;;9.52;100.00
12785;BME280;6456;42.680;23.260;2022-12-07T11:38:50;94290.25;;;9.67;100.00
12785;BME280;6456;42.680;23.260;2022-12-07T11:41:28;94312.91;;;9.68;99.55
12785;BME280;6456;42.680;23.260;2022-12-07T11:44:46;94322.81;;;9.66;99.37
12785;BME280;6456;42.680;23.260;2022-12-07T11:58:38;94270.69;;;9.14;100.00
12785;BME280;6456;42.680;23.260;2022-12-07T12:02:11;94264.06;;;9.36;100.00
12785;BME280;6456;42.680;23.260;2022-12-07T12:05:13;94310.34;;;9.86;100.00
12785;BME280;6456;42.680;23.260;2022-12-07T12:07:50;94302.59;;;9.91;100.00
12785;BME280;6456;42.680;23.260;2022-12-07T12:10:24;94343.16;;;10.26;99.95
12785;BME280;6456;42.680;23.260;2022-12-07T12:16:38;94252.53;;;9.86;97.85
12785;BME280;6456;42.680;23.260;2022-12-07T12:19:54;94233.94;;;9.63;97.70
12785;BME280;6456;42.680;23.260;2022-12-07T12:22:54;94363.94;;;10.53;96.94
12785;BME280;6456;42.680;23.260;2022-12-07T12:41:58;94327.97;;;10.83;95.45
12785;BME280;6456;42.680;23.260;2022-12-07T12:44:42;94273.69;;;10.52;94.57
12785;BME280;6456;42.680;23.260;2022-12-07T12:47:41;94255.94;;;10.48;93.99
12785;BME280;6456;42.680;23.260;2022-12-07T12:50:21;94230.09;;;10.26;94.27
12785;BME280;6456;42.680;23.260;2022-12-07T12:56:17;94236.38;;;10.25;94.62
12785;BME280;6456;42.680;23.260;2022-12-07T12:59:21;94222.34;;;10.13;94.18
12785;BME280;6456;42.680;23.260;2022-12-07T13:01:50;94239.13;;;10.30;94.77
12785;BME280;6456;42.680;23.260;2022-12-07T13:04:34;94267.34;;;10.42;95.45
12785;BME280;6456;42.680;23.260;2022-12-07T13:07:08;94247.59;;;10.32;95.28
12785;BME280;6456;42.680;23.260;2022-12-07T13:09:43;94283.41;;;10.52;95.27
12785;BME280;6456;42.680;23.260;2022-12-07T13:12:16;94306.91;;;10.65;94.62
12785;BME280;6456;42.680;23.260;2022-12-07T13:14:58;94341.72;;;10.85;94.46
12785;BME280;6456;42.680;23.260;2022-12-07T13:17:57;94330.31;;;10.91;94.40
12785;BME280;6456;42.680;23.260;2022-12-07T13:20:52;94305.03;;;10.72;94.37
12785;BME280;6456;42.680;23.260;2022-12-07T13:23:23;94276.00;;;10.60;94.28
12785;BME280;6456;42.680;23.260;2022-12-07T13:26:14;94209.34;;;10.18;94.31
12785;BME280;6456;42.680;23.260;2022-12-07T13:28:43;94228.28;;;10.27;94.11
12785;BME280;6456;42.680;23.260;2022-12-07T13:31:31;94324.94;;;10.98;94.17
12785;BME280;6456;42.680;23.260;2022-12-07T13:34:26;94268.22;;;10.54;93.95
12785;BME280;6456;42.680;23.260;2022-12-07T13:36:57;94325.31;;;11.01;93.90
12785;BME280;6456;42.680;23.260;2022-12-07T13:43:14;94322.38;;;11.09;93.90
12785;BME280;6456;42.680;23.260;2022-12-07T13:45:42;94294.59;;;10.95;94.78
12785;BME280;6456;42.680;23.260;2022-12-07T13:48:21;94204.00;;;10.43;94.39
12785;BME280;6456;42.680;23.260;2022-12-07T13:50:54;94243.13;;;10.69;94.36
12785;BME280;6456;42.680;23.260;2022-12-07T13:53:22;94208.25;;;10.44;94.33
12785;BME280;6456;42.680;23.260;2022-12-07T13:55:50;94318.28;;;11.13;94.67
12785;BME280;6456;42.680;23.260;2022-12-07T13:58:17;94222.25;;;10.56;94.52
12785;BME280;6456;42.680;23.260;2022-12-07T14:00:44;94310.94;;;11.15;94.54
12785;BME280;6456;42.680;23.260;2022-12-07T14:03:27;94324.25;;;11.20;94.32
12785;BME280;6456;42.680;23.260;2022-12-07T14:06:24;94297.97;;;11.02;94.50
12785;BME280;6456;42.680;23.260;2022-12-07T14:09:14;94294.59;;;10.95;95.18
12785;BME280;6456;42.680;23.260;2022-12-07T14:11:44;94281.41;;;10.83;95.13
12785;BME280;6456;42.680;23.260;2022-12-07T14:14:14;94326.03;;;11.08;95.27
12785;BME280;6456;42.680;23.260;2022-12-07T14:16:43;94268.91;;;10.79;95.27
12785;BME280;6456;42.680;23.260;2022-12-07T14:19:45;94325.84;;;11.10;94.92
12785;BME280;6456;42.680;23.260;2022-12-07T14:22:22;94302.75;;;10.93;94.69
12785;BME280;6456;42.680;23.260;2022-12-07T14:24:50;94218.25;;;10.36;94.60
12785;BME280;6456;42.680;23.260;2022-12-07T14:27:19;94269.78;;;10.73;94.97